createdAt,value
2022-09-26T00:02:14.768Z,13.36
2022-09-26T00:04:44.515Z,13.36
2022-09-26T00:07:14.362Z,13.36
2022-09-26T00:09:46.776Z,13.36
2022-09-26T00:12:16.468Z,13.35
2022-09-26T00:14:46.207Z,13.35
2022-09-26T00:17:15.938Z,13.36
2022-09-26T00:19:45.653Z,13.36
2022-09-26T00:22:15.515Z,13.35
2022-09-26T00:24:47.852Z,13.35
2022-09-26T00:27:17.582Z,13.33
2022-09-26T00:29:47.324Z,13.32
2022-09-26T00:32:17.066Z,13.34
2022-09-26T00:34:46.761Z,13.33
2022-09-26T00:37:16.661Z,13.34
2022-09-26T00:39:48.993Z,13.35
2022-09-26T00:42:19.351Z,13.32
2022-09-26T00:44:54.585Z,13.33
2022-09-26T00:47:38.685Z,13.35
2022-09-26T00:50:13.907Z,13.34
2022-09-26T00:52:48.866Z,13.34
2022-09-26T00:55:24.473Z,13.34
2022-09-26T00:58:00.727Z,13.31
2022-09-26T01:00:30.454Z,13.31
2022-09-26T01:03:01.068Z,13.30
2022-09-26T01:05:31.221Z,13.31
2022-09-26T01:08:02.222Z,13.31
2022-09-26T01:10:36.578Z,13.29
2022-09-26T01:13:08.893Z,13.28
2022-09-26T01:15:39.141Z,13.29
2022-09-26T01:18:10.073Z,13.29
2022-09-26T01:20:53.722Z,13.30
2022-09-26T01:23:50.405Z,13.29
2022-09-26T01:27:09.331Z,13.30
2022-09-26T01:30:06.453Z,13.29
2022-09-26T01:32:54.038Z,13.28
2022-09-26T01:35:44.754Z,13.27
2022-09-26T01:38:26.797Z,13.27
2022-09-26T01:41:11.427Z,13.26
2022-09-26T01:43:52.617Z,13.26
2022-09-26T01:46:31.730Z,13.26
2022-09-26T01:49:12.205Z,13.25
2022-09-26T01:51:51.460Z,13.21
2022-09-26T01:54:24.885Z,13.21
2022-09-26T01:56:57.614Z,13.21
2022-09-26T01:59:31.167Z,13.21
2022-09-26T02:02:09.497Z,13.21
2022-09-26T02:04:44.998Z,13.21
2022-09-26T02:07:18.085Z,13.21
2022-09-26T02:09:50.546Z,13.23
2022-09-26T02:12:25.037Z,13.21
2022-09-26T02:14:59.661Z,13.21
2022-09-26T02:17:37.416Z,13.21
2022-09-26T02:20:15.083Z,13.21
2022-09-26T02:22:45.397Z,13.20
2022-09-26T02:25:15.085Z,13.20
2022-09-26T02:27:45.072Z,13.19
2022-09-26T02:30:16.106Z,13.18
2022-09-26T02:32:48.423Z,13.17
2022-09-26T02:35:31.653Z,13.15
2022-09-26T02:38:01.905Z,13.14
2022-09-26T02:40:40.814Z,13.14
2022-09-26T02:43:29.725Z,13.11
2022-09-26T02:46:12.998Z,13.09
2022-09-26T02:48:59.084Z,13.06
2022-09-26T02:51:50.236Z,13.03
2022-09-26T02:54:28.506Z,13.01
2022-09-26T02:57:24.927Z,12.98
2022-09-26T03:00:00.521Z,12.94
2022-09-26T03:02:35.675Z,12.93
2022-09-26T03:05:14.726Z,12.91
2022-09-26T03:07:49.265Z,12.89
2022-09-26T03:10:19.681Z,12.87
2022-09-26T03:12:49.528Z,12.86
2022-09-26T03:15:21.842Z,12.85
2022-09-26T03:17:55.312Z,12.86
2022-09-26T03:20:27.665Z,12.85
2022-09-26T03:22:57.571Z,12.85
2022-09-26T03:25:30.326Z,12.85
2022-09-26T03:28:02.400Z,12.84
2022-09-26T03:30:32.628Z,12.84
2022-09-26T03:33:03.343Z,12.84
2022-09-26T03:35:35.810Z,12.84
2022-09-26T03:38:05.534Z,12.82
2022-09-26T03:40:35.313Z,12.80
2022-09-26T03:43:05.121Z,12.80
2022-09-26T03:45:34.902Z,12.81
2022-09-26T03:48:06.348Z,12.80
2022-09-26T03:50:38.707Z,12.82
2022-09-26T03:53:08.391Z,12.82
2022-09-26T03:55:38.209Z,12.82
2022-09-26T03:58:08.084Z,12.81
2022-09-26T04:00:37.836Z,12.82
2022-09-26T04:03:07.557Z,12.81
2022-09-26T04:05:40.324Z,12.81
2022-09-26T04:08:10.274Z,12.80
2022-09-26T04:10:40.251Z,12.78
2022-09-26T04:13:09.979Z,12.80
2022-09-26T04:15:39.656Z,12.78
2022-09-26T04:18:10.076Z,12.79
2022-09-26T04:20:43.217Z,12.78
2022-09-26T04:23:13.694Z,12.78
2022-09-26T04:25:43.386Z,12.77
2022-09-26T04:28:13.218Z,12.76
2022-09-26T04:30:42.908Z,12.75
2022-09-26T04:33:12.633Z,12.73
2022-09-26T04:35:44.916Z,12.74
2022-09-26T04:38:15.182Z,12.73
2022-09-26T04:40:44.919Z,12.73
2022-09-26T04:43:15.367Z,12.72
2022-09-26T04:45:45.828Z,12.72
2022-09-26T04:48:15.552Z,12.71
2022-09-26T04:50:47.861Z,12.72
2022-09-26T04:53:19.462Z,12.70
2022-09-26T04:55:49.917Z,12.69
2022-09-26T04:58:20.238Z,12.68
2022-09-26T05:00:50.555Z,12.66
2022-09-26T05:03:20.686Z,12.64
2022-09-26T05:05:53.273Z,12.63
2022-09-26T05:08:23.672Z,12.62
2022-09-26T05:10:56.033Z,12.62
2022-09-26T05:13:26.171Z,12.62
2022-09-26T05:15:56.177Z,12.62
2022-09-26T05:18:26.202Z,12.61
2022-09-26T05:21:01.825Z,12.61
2022-09-26T05:23:45.227Z,12.60
2022-09-26T05:26:23.594Z,12.60
2022-09-26T05:28:55.897Z,12.60
2022-09-26T05:31:29.416Z,12.59
2022-09-26T05:33:59.358Z,12.57
2022-09-26T05:36:31.699Z,12.58
2022-09-26T05:39:01.633Z,12.56
2022-09-26T05:41:30.008Z,12.58
2022-09-26T05:44:00.230Z,12.58
2022-09-26T05:46:32.006Z,12.55
2022-09-26T05:49:01.805Z,12.53
2022-09-26T05:51:34.110Z,12.52
2022-09-26T05:54:03.981Z,12.51
2022-09-26T05:56:33.759Z,12.52
2022-09-26T05:59:03.457Z,12.51
2022-09-26T06:01:33.383Z,12.50
2022-09-26T06:04:03.268Z,12.49
2022-09-26T06:06:35.626Z,12.46
2022-09-26T06:09:07.381Z,12.47
2022-09-26T06:11:37.169Z,12.48
2022-09-26T06:14:07.302Z,12.46
2022-09-26T06:16:37.105Z,12.46
2022-09-26T06:19:06.979Z,12.44
2022-09-26T06:21:40.331Z,12.43
2022-09-26T06:24:10.494Z,12.43
2022-09-26T06:26:40.513Z,12.42
2022-09-26T06:29:10.212Z,12.40
2022-09-26T06:31:40.524Z,12.41
2022-09-26T06:34:12.221Z,12.39
2022-09-26T06:36:45.069Z,12.38
2022-09-26T06:39:15.010Z,12.39
2022-09-26T06:41:44.830Z,12.39
2022-09-26T06:44:14.610Z,12.40
2022-09-26T06:46:44.332Z,12.40
2022-09-26T06:49:14.183Z,12.41
2022-09-26T06:51:46.589Z,12.40
2022-09-26T06:54:16.275Z,12.40
2022-09-26T06:56:45.958Z,12.39
2022-09-26T06:59:17.050Z,12.39
2022-09-26T07:01:48.067Z,12.41
2022-09-26T07:04:18.720Z,12.39
2022-09-26T07:06:50.998Z,12.38
2022-09-26T07:09:20.869Z,12.35
2022-09-26T07:12:13.638Z,12.32
2022-09-26T07:14:40.481Z,12.33
2022-09-26T07:17:10.221Z,12.35
2022-09-26T07:19:39.923Z,12.36
2022-09-26T07:22:12.501Z,12.36
2022-09-26T07:24:45.242Z,12.36
2022-09-26T07:27:15.390Z,12.36
2022-09-26T07:29:46.075Z,12.36
2022-09-26T07:32:15.812Z,12.39
2022-09-26T07:34:45.518Z,12.38
2022-09-26T07:37:18.114Z,12.39
2022-09-26T07:39:51.306Z,12.38
2022-09-26T07:42:23.426Z,12.37
2022-09-26T07:45:21.853Z,12.36
2022-09-26T07:47:55.249Z,12.37
2022-09-26T07:50:25.350Z,12.37
2022-09-26T07:52:58.921Z,12.40
2022-09-26T07:55:30.899Z,12.39
2022-09-26T07:58:00.885Z,12.41
2022-09-26T08:00:31.677Z,12.42
2022-09-26T08:03:05.251Z,12.44
2022-09-26T08:05:35.699Z,12.45
2022-09-26T08:08:08.090Z,12.47
2022-09-26T08:10:37.782Z,12.47
2022-09-26T08:13:07.480Z,12.49
2022-09-26T09:02:23.651Z,12.68
2022-09-26T09:05:00.481Z,12.71
2022-09-26T09:07:30.281Z,12.75
2022-09-26T09:10:04.426Z,12.82
2022-09-26T09:12:46.646Z,12.85
2022-09-26T09:15:35.254Z,12.88
2022-09-26T09:18:20.536Z,12.90
2022-09-26T09:20:59.647Z,12.92
2022-09-26T09:23:44.427Z,12.95
2022-09-26T09:29:40.241Z,12.98
2022-09-26T09:32:16.405Z,12.99
2022-09-26T09:34:53.940Z,13.02
2022-09-26T09:37:28.448Z,13.02
2022-09-26T09:39:59.577Z,13.05
2022-09-26T09:42:38.072Z,13.06
2022-09-26T09:45:12.912Z,13.09
2022-09-26T09:47:43.401Z,13.11
2022-09-26T09:50:33.276Z,13.13
2022-09-26T09:53:14.246Z,13.15
2022-09-26T09:55:57.249Z,13.18
2022-09-26T09:58:58.158Z,13.19
2022-09-26T10:01:33.808Z,13.19
2022-09-26T10:04:10.568Z,13.20
2022-09-26T10:06:47.395Z,13.23
2022-09-26T10:09:35.280Z,13.24
2022-09-26T10:12:17.170Z,13.24
2022-09-26T10:14:55.118Z,13.27
2022-09-26T10:17:27.088Z,13.29
2022-09-26T10:19:56.894Z,13.32
2022-09-26T10:22:37.488Z,13.36
2022-09-26T10:25:11.596Z,13.39
2022-09-26T10:27:43.062Z,13.41
2022-09-26T10:30:30.417Z,13.43
2022-09-26T10:33:03.628Z,13.40
2022-09-26T10:35:44.707Z,13.43
2022-09-26T10:38:27.518Z,13.44
2022-09-26T10:40:58.385Z,13.44
2022-09-26T10:43:34.135Z,13.44
2022-09-26T10:46:11.520Z,13.46
2022-09-26T10:48:52.111Z,13.43
2022-09-26T10:51:29.214Z,13.43
2022-09-26T10:54:07.041Z,13.42
2022-09-26T10:56:47.237Z,13.41
2022-09-26T10:59:19.118Z,13.40
2022-09-26T11:01:56.066Z,13.41
2022-09-26T11:04:42.166Z,13.41
2022-09-26T11:07:14.132Z,13.42
2022-09-26T11:09:48.810Z,13.42
2022-09-26T11:12:27.065Z,13.44
2022-09-26T11:14:59.609Z,13.43
2022-09-26T11:17:48.006Z,13.46
2022-09-26T11:20:37.015Z,13.47
2022-09-26T11:23:16.356Z,13.47
2022-09-26T11:25:58.557Z,13.47
2022-09-26T11:28:34.464Z,13.51
2022-09-26T11:31:10.077Z,13.48
2022-09-26T11:33:45.939Z,13.47
2022-09-26T11:36:41.807Z,13.46
2022-09-26T11:39:28.026Z,13.45
2022-09-26T11:42:14.008Z,13.42
2022-09-26T11:44:56.802Z,13.43
2022-09-26T11:47:47.771Z,13.45
2022-09-26T11:50:30.296Z,13.47
2022-09-26T11:53:15.313Z,13.52
2022-09-26T11:56:01.630Z,13.56
2022-09-26T11:58:43.636Z,13.58
2022-09-26T12:01:23.029Z,13.61
2022-09-26T12:04:27.338Z,13.63
2022-09-26T12:07:02.073Z,13.67
2022-09-26T12:10:07.158Z,13.70
2022-09-26T12:12:44.453Z,13.69
2022-09-26T12:15:24.658Z,13.71
2022-09-26T12:18:13.386Z,13.71
2022-09-26T12:20:53.734Z,13.74
2022-09-26T12:23:32.166Z,13.74
2022-09-26T12:26:11.497Z,13.76
2022-09-26T12:29:05.308Z,13.78
2022-09-26T12:31:50.731Z,13.78
2022-09-26T12:34:37.873Z,13.80
2022-09-26T12:37:32.246Z,13.85
2022-09-26T12:40:18.813Z,13.91
2022-09-26T12:43:08.753Z,13.92
2022-09-26T12:46:16.478Z,13.98
2022-09-26T12:49:03.050Z,14.03
2022-09-26T12:51:44.153Z,14.10
2022-09-26T12:54:43.860Z,14.16
2022-09-26T12:57:25.533Z,14.21
2022-09-26T13:00:13.423Z,14.27
2022-09-26T13:03:10.711Z,14.31
2022-09-26T13:06:08.720Z,14.32
2022-09-26T13:08:47.053Z,14.32
2022-09-26T13:11:32.431Z,14.34
2022-09-26T13:14:34.091Z,14.32
2022-09-26T13:17:13.991Z,14.28
2022-09-26T13:19:51.653Z,14.28
2022-09-26T13:22:35.190Z,14.31
2022-09-26T13:25:19.042Z,14.33
2022-09-26T13:27:56.051Z,14.32
2022-09-26T13:30:35.879Z,14.32
2022-09-26T13:33:14.311Z,14.28
2022-09-26T13:35:47.497Z,14.26
2022-09-26T13:38:34.980Z,14.22
2022-09-26T13:41:14.685Z,14.19
2022-09-26T13:43:57.616Z,14.18
2022-09-26T13:46:40.210Z,14.19
2022-09-26T13:49:36.863Z,14.23
2022-09-26T13:52:20.844Z,14.24
2022-09-26T13:55:03.028Z,14.26
2022-09-26T13:57:39.148Z,14.29
2022-09-26T14:00:49.397Z,14.34
2022-09-26T14:03:44.402Z,14.35
2022-09-26T14:06:34.827Z,14.42
2022-09-26T14:09:28.708Z,14.46
2022-09-26T14:12:23.809Z,14.54
2022-09-26T14:15:19.066Z,14.59
2022-09-26T14:18:15.454Z,14.62
2022-09-26T14:21:00.510Z,14.65
2022-09-26T14:23:41.889Z,14.69
2022-09-26T14:26:14.163Z,14.71
2022-09-26T14:28:53.065Z,14.77
2022-09-26T14:32:02.050Z,14.84
2022-09-26T14:34:35.541Z,14.87
2022-09-26T14:37:19.358Z,14.91
2022-09-26T14:39:51.045Z,14.97
2022-09-26T14:42:26.394Z,15.00
2022-09-26T14:45:05.060Z,15.03
2022-09-26T14:47:45.115Z,15.06
2022-09-26T14:50:20.873Z,15.08
2022-09-26T14:52:55.100Z,15.11
2022-09-26T14:55:25.216Z,15.11
2022-09-26T14:57:55.126Z,15.12
2022-09-26T15:00:43.230Z,15.13
2022-09-26T15:03:18.922Z,15.11
2022-09-26T15:05:50.421Z,15.07
2022-09-26T15:08:28.136Z,15.02
2022-09-26T15:11:00.614Z,15.02
2022-09-26T15:13:37.375Z,14.97
2022-09-26T15:16:22.079Z,14.90
2022-09-26T15:18:57.194Z,14.80
2022-09-26T15:21:33.014Z,14.74
2022-09-26T15:24:06.504Z,14.63
2022-09-26T15:26:38.834Z,14.57
2022-09-26T15:29:10.076Z,14.54
2022-09-26T15:31:44.478Z,14.53
2022-09-26T15:34:16.861Z,14.54
2022-09-26T15:36:48.678Z,14.55
2022-09-26T15:39:43.387Z,14.58
2022-09-26T15:42:45.773Z,14.58
2022-09-26T15:45:33.208Z,14.55
2022-09-26T15:48:30.345Z,14.60
2022-09-26T15:51:05.828Z,14.61
2022-09-26T15:53:40.678Z,14.63
2022-09-26T15:56:14.409Z,14.67
2022-09-26T15:58:49.394Z,14.66
2022-09-26T16:01:21.364Z,14.65
2022-09-26T16:03:58.731Z,14.61
2022-09-26T16:06:34.284Z,14.58
2022-09-26T16:09:19.379Z,14.58
2022-09-26T16:11:52.564Z,14.58
2022-09-26T16:14:28.375Z,14.56
2022-09-26T16:17:01.762Z,14.54
2022-09-26T16:19:37.111Z,14.54
2022-09-26T16:22:36.883Z,14.55
2022-09-26T16:25:29.828Z,14.57
2022-09-26T16:28:08.871Z,14.55
2022-09-26T16:30:43.975Z,14.57
2022-09-26T16:33:36.961Z,14.61
2022-09-26T16:36:21.534Z,14.63
2022-09-26T16:38:56.956Z,14.64
2022-09-26T16:42:00.739Z,14.66
2022-09-26T16:44:36.044Z,14.69
2022-09-26T16:47:09.260Z,14.71
2022-09-26T16:49:48.616Z,14.73
2022-09-26T16:52:35.806Z,14.74
2022-09-26T16:55:08.744Z,14.74
2022-09-26T16:57:41.784Z,14.73
2022-09-26T17:00:31.815Z,14.73
2022-09-26T17:03:02.097Z,14.69
2022-09-26T17:05:31.966Z,14.67
2022-09-26T17:08:04.662Z,14.65
2022-09-26T17:10:37.738Z,14.63
2022-09-26T17:13:07.850Z,14.62
2022-09-26T17:15:37.740Z,14.59
2022-09-26T17:18:10.617Z,14.54
2022-09-26T17:20:42.555Z,14.45
2022-09-26T17:23:39.261Z,14.39
2022-09-26T17:26:06.993Z,14.32
2022-09-26T17:28:40.447Z,14.29
2022-09-26T17:31:19.286Z,14.26
2022-09-26T17:33:52.541Z,14.25
2022-09-26T17:36:26.025Z,14.22
2022-09-26T17:38:59.707Z,14.23
2022-09-26T17:41:32.749Z,14.22
2022-09-26T17:44:02.598Z,14.21
2022-09-26T17:46:32.581Z,14.20
2022-09-26T17:49:05.414Z,14.18
2022-09-26T17:51:36.321Z,14.17
2022-09-26T17:54:09.743Z,14.13
2022-09-26T17:56:39.523Z,14.09
2022-09-26T17:59:22.758Z,14.05
2022-09-26T18:01:59.188Z,14.04
2022-09-26T18:04:29.861Z,14.00
2022-09-26T18:07:04.534Z,13.97
2022-09-26T18:09:39.565Z,13.95
2022-09-26T18:12:16.732Z,13.94
2022-09-26T18:14:46.508Z,13.93
2022-09-26T18:17:18.052Z,13.93
2022-09-26T18:19:49.421Z,13.93
2022-09-26T18:22:21.789Z,13.92
2022-09-26T18:24:57.398Z,13.90
2022-09-26T18:27:27.293Z,13.87
2022-09-26T18:29:57.114Z,13.82
2022-09-26T18:32:32.450Z,13.78
2022-09-26T18:35:02.341Z,13.75
2022-09-26T18:37:32.192Z,13.75
2022-09-26T18:40:04.917Z,13.75
2022-09-26T18:42:35.417Z,13.75
2022-09-26T18:45:08.713Z,13.75
2022-09-26T18:47:42.599Z,13.76
2022-09-26T18:50:21.921Z,13.75
2022-09-26T18:52:52.319Z,13.73
2022-09-26T18:55:38.987Z,13.73
2022-09-26T18:58:21.451Z,13.72
2022-09-26T19:00:54.523Z,13.70
2022-09-26T19:03:25.122Z,13.70
2022-09-26T19:05:58.271Z,13.68
2022-09-26T19:08:33.683Z,13.67
2022-09-26T19:11:13.072Z,13.65
2022-09-26T19:13:43.091Z,13.58
2022-09-26T19:16:13.377Z,13.51
2022-09-26T19:18:43.550Z,13.42
2022-09-26T19:21:19.769Z,13.36
2022-09-26T19:23:50.810Z,13.29
2022-09-26T19:26:30.164Z,13.24
2022-09-26T19:29:02.308Z,13.23
2022-09-26T19:31:32.260Z,13.26
2022-09-26T19:34:02.008Z,13.26
2022-09-26T19:36:31.832Z,13.25
2022-09-26T19:39:01.879Z,13.26
2022-09-26T19:41:34.516Z,13.29
2022-09-26T19:44:05.744Z,13.30
2022-09-26T19:46:36.481Z,13.32
2022-09-26T19:49:08.247Z,13.32
2022-09-26T19:51:41.061Z,13.35
2022-09-26T19:54:16.817Z,13.35
2022-09-26T19:56:49.699Z,13.35
2022-09-26T19:59:24.075Z,13.35
2022-09-26T20:01:56.589Z,13.32
2022-09-26T20:04:26.404Z,13.33
2022-09-26T20:06:58.478Z,13.34
2022-09-26T20:09:28.218Z,13.35
2022-09-26T20:12:00.542Z,13.36
2022-09-26T20:14:30.318Z,13.38
2022-09-26T20:17:02.711Z,13.40
2022-09-26T20:19:36.807Z,13.42
2022-09-26T20:22:09.488Z,13.47
2022-09-26T20:24:43.398Z,13.49
2022-09-26T20:27:21.336Z,13.53
2022-09-26T20:30:04.991Z,13.51
2022-09-26T20:32:35.011Z,13.49
2022-09-26T20:35:04.965Z,13.45
2022-09-26T20:37:39.274Z,13.38
2022-09-26T20:40:18.163Z,13.33
2022-09-26T20:42:53.577Z,13.31
2022-09-26T20:45:31.907Z,13.32
2022-09-26T20:48:02.877Z,13.30
2022-09-26T20:50:34.550Z,13.31
2022-09-26T20:53:04.514Z,13.30
2022-09-26T20:55:35.099Z,13.30
2022-09-26T20:58:07.676Z,13.28
2022-09-26T21:00:38.926Z,13.25
2022-09-26T21:03:09.689Z,13.21
2022-09-26T21:05:39.912Z,13.21
2022-09-26T21:08:12.821Z,13.20
2022-09-26T21:10:42.517Z,13.15
2022-09-26T21:13:14.944Z,13.13
2022-09-26T21:15:45.362Z,13.07
2022-09-26T21:18:26.167Z,13.04
2022-09-26T21:20:56.691Z,12.99
2022-09-26T21:23:26.516Z,12.96
2022-09-26T21:25:56.200Z,12.91
2022-09-26T21:28:30.248Z,12.89
2022-09-26T21:31:03.482Z,12.88
2022-09-26T21:33:33.493Z,12.89
2022-09-26T21:36:03.418Z,12.87
2022-09-26T21:38:33.212Z,12.87
2022-09-26T21:41:05.038Z,12.87
2022-09-26T21:43:41.168Z,12.87
2022-09-26T21:46:11.143Z,12.85
2022-09-26T21:48:40.863Z,12.84
2022-09-26T21:51:12.316Z,12.83
2022-09-26T21:53:46.086Z,12.82
2022-09-26T21:56:19.607Z,12.81
2022-09-26T21:58:52.735Z,12.81
2022-09-26T22:01:22.885Z,12.84
2022-09-26T22:03:53.117Z,12.86
2022-09-26T22:06:22.843Z,12.90
2022-09-26T22:08:52.932Z,12.92
2022-09-26T22:11:22.640Z,12.94
2022-09-26T22:13:55.748Z,12.96
2022-09-26T22:16:25.533Z,12.98
2022-09-26T22:18:55.290Z,13.01
2022-09-26T22:21:25.090Z,12.99
2022-09-26T22:23:55.004Z,13.01
2022-09-26T22:26:24.791Z,13.01
2022-09-26T22:28:57.138Z,12.98
2022-09-26T22:31:26.955Z,12.95
2022-09-26T22:33:59.422Z,12.90
2022-09-26T22:36:29.517Z,12.85
2022-09-26T22:38:59.213Z,12.79
2022-09-26T22:41:29.158Z,12.76
2022-09-26T22:44:01.537Z,12.69
2022-09-26T22:46:31.306Z,12.63
2022-09-26T22:49:01.220Z,12.60
2022-09-26T22:51:31.203Z,12.54
2022-09-26T22:54:00.937Z,12.52
2022-09-26T22:56:30.656Z,12.44
2022-09-26T22:59:03.105Z,12.38
2022-09-26T23:01:32.953Z,12.31
2022-09-26T23:04:03.117Z,12.30
2022-09-26T23:06:34.197Z,12.33
2022-09-26T23:09:03.909Z,12.37
2022-09-26T23:11:33.617Z,12.39
2022-09-26T23:14:06.000Z,12.39
2022-09-26T23:16:35.771Z,12.37
2022-09-26T23:19:05.644Z,12.32
2022-09-26T23:21:35.372Z,12.30
2022-09-26T23:24:05.054Z,12.28
2022-09-26T23:26:34.935Z,12.29
2022-09-26T23:29:07.476Z,12.30
2022-09-26T23:31:37.272Z,12.28
2022-09-26T23:34:07.237Z,12.23
2022-09-26T23:36:37.017Z,12.19
2022-09-26T23:39:06.887Z,12.17
2022-09-26T23:41:36.628Z,12.18
2022-09-26T23:44:08.982Z,12.23
2022-09-26T23:46:39.151Z,12.27
2022-09-26T23:49:09.093Z,12.32
2022-09-26T23:51:38.874Z,12.38
2022-09-26T23:54:08.828Z,12.39
2022-09-26T23:56:38.583Z,12.39
2022-09-26T23:59:10.989Z,12.41
